Time;durP1;ratioP1;P1;durP2;ratioP2;P2;SDS_P1;SDS_P2;PMS_P1;PMS_P2;Temp;Humidity;BMP_temperature;BMP_pressure;BME280_temperature;BME280_humidity;BME280_pressure;Samples;Min_cycle;Max_cycle;Signal;HPM_P1;HPM_P2
2022/06/23 00:02:14;;;;;;;8.55;4.28;;;14.20;99.90;;;;;;5050032;28;20045;-76
2022/06/23 00:04:44;;;;;;;8.93;4.18;;;14.10;99.90;;;;;;5085290;28;20108;-77
2022/06/23 00:07:24;;;;;;;9.35;4.68;;;14.10;99.90;;;;;;5057405;28;20052;-77
2022/06/23 00:09:58;;;;;;;9.52;4.10;;;14.10;99.90;;;;;;5062508;28;20399;-78
2022/06/23 00:12:29;;;;;;;9.23;4.30;;;14.10;99.90;;;;;;5057453;28;20113;-78
2022/06/23 00:15:13;;;;;;;8.90;4.22;;;14.10;99.90;;;;;;5069332;28;20074;-77
2022/06/23 00:17:40;;;;;;;10.65;4.60;;;14.00;99.90;;;;;;5056350;28;20136;-77
2022/06/23 00:20:17;;;;;;;9.15;4.60;;;14.00;99.90;;;;;;5069242;28;20040;-77
2022/06/23 00:22:54;;;;;;;9.63;4.55;;;14.00;99.90;;;;;;5046638;28;20045;-77
2022/06/23 00:25:39;;;;;;;9.27;4.57;;;14.00;99.90;;;;;;5048049;28;20037;-77
2022/06/23 00:28:06;;;;;;;9.05;4.25;;;13.90;99.90;;;;;;5043878;28;20040;-77
2022/06/23 00:30:40;;;;;;;8.88;4.53;;;13.90;99.90;;;;;;5049631;28;20106;-77
2022/06/23 00:33:25;;;;;;;9.68;5.00;;;13.80;99.90;;;;;;5051082;28;20052;-78
2022/06/23 00:35:52;;;;;;;9.35;4.68;;;13.80;99.90;;;;;;5052470;28;20064;-77
2022/06/23 00:38:20;;;;;;;9.43;4.72;;;13.80;99.90;;;;;;5033664;28;20140;-77
2022/06/23 00:40:47;;;;;;;9.00;4.60;;;13.80;99.90;;;;;;5067096;28;20040;-77
2022/06/23 00:43:13;;;;;;;8.55;4.38;;;13.70;99.90;;;;;;5068858;28;20049;-77
2022/06/23 00:46:11;;;;;;;9.48;4.88;;;13.70;99.90;;;;;;5050388;28;20047;-77
2022/06/23 00:48:42;;;;;;;10.32;4.95;;;13.70;99.90;;;;;;5047223;28;20253;-77
2022/06/23 00:51:21;;;;;;;9.40;4.75;;;13.70;99.90;;;;;;5065807;28;20036;-77
2022/06/23 00:54:04;;;;;;;11.00;4.97;;;13.70;99.90;;;;;;5067427;28;20068;-77
2022/06/23 00:57:02;;;;;;;9.25;5.07;;;13.70;99.90;;;;;;5049284;28;20200;-77
2022/06/23 00:59:36;;;;;;;9.55;5.00;;;13.60;99.90;;;;;;5063582;28;20032;-78
2022/06/23 01:02:07;;;;;;;8.52;4.60;;;13.60;99.90;;;;;;5064474;28;20041;-77
2022/06/23 01:04:42;;;;;;;9.00;4.38;;;13.60;99.90;;;;;;5048232;28;20037;-77
2022/06/23 01:07:23;;;;;;;8.82;4.47;;;13.60;99.90;;;;;;5040703;28;20032;-78
2022/06/23 01:09:55;;;;;;;10.00;4.95;;;13.60;99.90;;;;;;5058792;28;20101;-77
2022/06/23 01:12:30;;;;;;;9.03;4.80;;;13.60;99.90;;;;;;5056577;28;20053;-77
2022/06/23 01:15:11;;;;;;;9.40;4.60;;;13.50;99.90;;;;;;5068009;28;20455;-78
2022/06/23 01:17:42;;;;;;;9.15;4.72;;;13.50;99.90;;;;;;5048014;28;20114;-77
2022/06/23 01:20:22;;;;;;;8.98;4.85;;;13.50;99.90;;;;;;5066334;28;20418;-77
2022/06/23 01:22:51;;;;;;;9.35;4.78;;;13.50;99.90;;;;;;5046557;28;20094;-77
2022/06/23 01:25:40;;;;;;;9.30;5.07;;;13.50;99.90;;;;;;5039598;28;20418;-77
2022/06/23 01:28:17;;;;;;;9.25;4.93;;;13.40;99.90;;;;;;5066510;28;20036;-77
2022/06/23 01:31:05;;;;;;;9.25;4.90;;;13.40;99.90;;;;;;5048857;28;20048;-78
2022/06/23 01:33:41;;;;;;;9.35;5.10;;;13.40;99.90;;;;;;5065822;28;20217;-77
2022/06/23 01:36:10;;;;;;;10.02;5.07;;;13.40;99.90;;;;;;5050163;28;20036;-78
2022/06/23 01:39:00;;;;;;;10.43;5.05;;;13.30;99.90;;;;;;5050955;28;20502;-78
2022/06/23 01:41:51;;;;;;;9.35;5.03;;;13.30;99.90;;;;;;5063969;28;20447;-77
2022/06/23 01:44:45;;;;;;;9.95;4.95;;;13.30;99.90;;;;;;5050139;28;20098;-77
2022/06/23 01:47:46;;;;;;;9.45;5.20;;;13.30;99.90;;;;;;5048971;28;20072;-77
2022/06/23 01:50:41;;;;;;;10.50;5.53;;;13.20;99.90;;;;;;5039704;28;20052;-77
2022/06/23 01:53:23;;;;;;;9.07;5.00;;;13.20;99.90;;;;;;5033003;28;20045;-78
2022/06/23 01:56:03;;;;;;;9.57;4.95;;;13.20;99.90;;;;;;5063702;28;20416;-77
2022/06/23 01:59:15;;;;;;;9.98;5.35;;;13.20;99.90;;;;;;5044830;28;20045;-77
2022/06/23 02:01:51;;;;;;;9.95;5.22;;;13.10;99.90;;;;;;5029000;28;20075;-77
2022/06/23 02:04:28;;;;;;;9.50;5.20;;;13.10;99.90;;;;;;5040590;28;20525;-78
2022/06/23 02:07:04;;;;;;;9.43;5.13;;;13.10;99.90;;;;;;5044310;28;20098;-77
2022/06/23 02:09:37;;;;;;;9.18;5.30;;;13.10;99.90;;;;;;5050740;28;20068;-77
2022/06/23 02:12:31;;;;;;;9.98;5.00;;;13.10;99.90;;;;;;5048801;28;20051;-77
2022/06/23 02:15:04;;;;;;;;;;;13.00;99.90;;;;;;5046853;28;20051;-77
2022/06/23 02:17:47;;;;;;;9.48;5.10;;;13.00;99.90;;;;;;5049838;28;20323;-77
2022/06/23 02:20:20;;;;;;;;;;;12.90;99.90;;;;;;5052988;28;20037;-77
2022/06/23 02:22:47;;;;;;;9.93;5.30;;;12.80;99.90;;;;;;5050189;28;20016;-77
2022/06/23 02:25:21;;;;;;;10.38;5.30;;;12.80;99.90;;;;;;5066857;28;20036;-78
2022/06/23 02:27:52;;;;;;;9.90;5.45;;;12.80;99.90;;;;;;5059451;28;20033;-77
2022/06/23 02:30:32;;;;;;;10.90;5.85;;;12.80;99.90;;;;;;5069906;28;20055;-78
2022/06/23 02:33:04;;;;;;;10.70;5.80;;;12.80;99.90;;;;;;5069531;28;20112;-78
2022/06/23 02:36:04;;;;;;;9.65;5.20;;;12.80;99.90;;;;;;5047101;28;20086;-77
2022/06/23 02:38:37;;;;;;;10.07;5.82;;;12.80;99.90;;;;;;5051699;28;20032;-77
2022/06/23 02:41:02;;;;;;;10.60;6.07;;;12.70;99.90;;;;;;5051924;28;20032;-78
2022/06/23 02:44:02;;;;;;;10.82;5.35;;;12.70;99.90;;;;;;5070462;28;20127;-78
2022/06/23 02:46:54;;;;;;;10.40;5.88;;;12.70;99.90;;;;;;5041194;28;20132;-77
2022/06/23 02:49:47;;;;;;;10.60;5.90;;;12.70;99.90;;;;;;5070511;28;20079;-78
2022/06/23 02:52:31;;;;;;;11.65;6.70;;;12.60;99.90;;;;;;5065706;28;20036;-77
2022/06/23 02:55:03;;;;;;;10.80;6.30;;;12.60;99.90;;;;;;5053781;28;20084;-78
2022/06/23 02:57:40;;;;;;;11.88;6.50;;;13.60;99.90;;;;;;5057418;28;20521;-77
2022/06/23 03:00:27;;;;;;;11.40;6.30;;;12.60;99.90;;;;;;5060340;28;20052;-77
2022/06/23 03:03:27;;;;;;;11.68;6.03;;;12.60;99.90;;;;;;5050173;28;20040;-78
2022/06/23 03:06:13;;;;;;;11.43;6.00;;;12.60;99.90;;;;;;5034485;28;20062;-78
2022/06/23 03:08:59;;;;;;;10.93;6.53;;;12.60;99.90;;;;;;5062364;28;20119;-78
2022/06/23 03:11:56;;;;;;;11.18;6.40;;;12.70;99.90;;;;;;5064222;28;20053;-77
2022/06/23 03:14:53;;;;;;;10.90;6.53;;;12.70;99.90;;;;;;5053203;28;20622;-78
2022/06/23 03:17:20;;;;;;;11.48;6.55;;;12.70;99.90;;;;;;5043869;28;20043;-77
2022/06/23 03:19:57;;;;;;;12.02;6.53;;;12.70;99.90;;;;;;5058289;28;20371;-77
2022/06/23 03:22:38;;;;;;;12.10;6.63;;;12.70;99.90;;;;;;5049275;28;20146;-77
2022/06/23 03:25:30;;;;;;;11.32;6.35;;;12.70;99.90;;;;;;5046771;28;20047;-77
2022/06/23 03:28:19;;;;;;;10.98;5.80;;;12.70;99.90;;;;;;5066645;28;20084;-77
2022/06/23 03:31:07;;;;;;;11.35;6.55;;;12.70;99.90;;;;;;5064483;28;20048;-77
2022/06/23 03:33:58;;;;;;;11.32;6.15;;;12.60;99.90;;;;;;5047111;28;20051;-77
2022/06/23 03:36:35;;;;;;;10.65;5.78;;;12.70;99.90;;;;;;5068362;28;20044;-78
2022/06/23 03:42:39;;;;;;;12.57;7.15;;;12.60;99.90;;;;;;5065798;28;20040;-77
2022/06/23 03:45:20;;;;;;;13.57;6.57;;;12.60;99.90;;;;;;5058641;28;20120;-77
2022/06/23 03:48:18;;;;;;;12.25;6.80;;;12.60;99.90;;;;;;5035712;28;20041;-77
2022/06/23 03:50:49;;;;;;;12.77;7.47;;;12.60;99.90;;;;;;5040407;28;20041;-77
2022/06/23 03:53:24;;;;;;;12.88;7.00;;;12.60;99.90;;;;;;5033245;28;20052;-77
2022/06/23 03:55:55;;;;;;;11.48;7.18;;;12.60;99.90;;;;;;5056003;28;20274;-78
2022/06/23 03:58:27;;;;;;;12.98;7.32;;;12.70;99.90;;;;;;5052222;28;20036;-78
2022/06/23 04:01:03;;;;;;;14.25;8.30;;;12.70;99.90;;;;;;5063214;28;20467;-78
2022/06/23 04:03:50;;;;;;;12.98;7.97;;;12.70;99.90;;;;;;5052701;28;20036;-78
2022/06/23 04:06:30;;;;;;;13.35;8.57;;;12.80;99.90;;;;;;5050093;28;20586;-77
2022/06/23 04:09:20;;;;;;;12.27;7.95;;;12.80;99.90;;;;;;5052716;28;20037;-77
2022/06/23 04:12:08;;;;;;;12.13;7.57;;;12.80;99.90;;;;;;5051058;28;20469;-78
2022/06/23 04:14:33;;;;;;;12.73;8.00;;;12.90;99.90;;;;;;5052313;28;20483;-77
2022/06/23 04:17:38;;;;;;;14.98;8.43;;;13.00;99.90;;;;;;5036943;28;20090;-77
2022/06/23 04:20:47;;;;;;;13.65;8.20;;;13.10;99.90;;;;;;5039959;28;20102;-77
2022/06/23 04:23:17;;;;;;;13.57;7.93;;;13.20;99.90;;;;;;4997806;28;20038;-77
2022/06/23 04:25:59;;;;;;;14.60;8.95;;;13.30;99.90;;;;;;5025864;28;20037;-77
2022/06/23 04:28:31;;;;;;;13.60;7.70;;;13.40;99.90;;;;;;5041947;28;20529;-78
2022/06/23 04:30:59;;;;;;;13.38;8.27;;;13.50;99.90;;;;;;5055249;28;20502;-78
2022/06/23 04:33:27;;;;;;;13.10;7.60;;;13.60;99.90;;;;;;5066959;28;20040;-78
2022/06/23 04:35:59;;;;;;;14.23;8.60;;;13.70;99.90;;;;;;5058564;28;20058;-78
2022/06/23 04:38:51;;;;;;;15.40;8.45;;;13.80;99.90;;;;;;5053832;28;20036;-79
2022/06/23 04:41:27;;;;;;;13.90;8.13;;;13.90;99.90;;;;;;5055494;28;20036;-78
2022/06/23 04:44:05;;;;;;;15.02;8.45;;;14.00;99.90;;;;;;5045172;28;20102;-77
2022/06/23 04:46:50;;;;;;;13.55;8.00;;;14.00;99.90;;;;;;5056068;28;20533;-77
2022/06/23 04:49:28;;;;;;;12.68;7.72;;;14.10;99.90;;;;;;5042555;28;20044;-78
2022/06/23 04:52:01;;;;;;;13.77;8.07;;;14.20;99.90;;;;;;5059900;28;20426;-78
2022/06/23 04:54:41;;;;;;;13.93;7.85;;;14.40;99.90;;;;;;5048229;28;20116;-78
2022/06/23 04:57:43;;;;;;;13.70;8.13;;;14.50;99.90;;;;;;5058012;28;20080;-78
2022/06/23 05:00:37;;;;;;;12.95;7.78;;;14.60;99.90;;;;;;5009034;28;20151;-78
2022/06/23 05:03:15;;;;;;;12.73;7.80;;;14.60;99.90;;;;;;5068232;28;20387;-78
2022/06/23 05:05:41;;;;;;;12.88;7.75;;;14.70;99.90;;;;;;5065450;28;20052;-78
2022/06/23 05:08:30;;;;;;;12.93;7.22;;;14.80;99.90;;;;;;5017408;28;20047;-78
2022/06/23 05:11:27;;;;;;;12.48;7.70;;;15.10;99.90;;;;;;5047387;28;20044;-78
2022/06/23 05:13:58;;;;;;;11.70;6.97;;;15.10;99.90;;;;;;5062008;28;20504;-78
2022/06/23 05:16:34;;;;;;;15.30;8.20;;;15.20;99.90;;;;;;5067468;28;20032;-79
2022/06/23 05:19:11;;;;;;;12.98;7.18;;;15.30;99.90;;;;;;5064632;28;20491;-78
2022/06/23 05:21:50;;;;;;;13.23;7.28;;;15.40;99.90;;;;;;5064017;28;20538;-79
2022/06/23 05:24:24;;;;;;;12.82;8.23;;;15.60;99.90;;;;;;5051245;28;20074;-77
2022/06/23 05:27:04;;;;;;;13.77;7.63;;;15.70;99.90;;;;;;5047611;28;20055;-79
2022/06/23 05:29:42;;;;;;;12.63;7.80;;;15.80;99.90;;;;;;5050304;28;20047;-80
2022/06/23 05:32:29;;;;;;;12.80;7.55;;;15.80;99.90;;;;;;5054782;28;20040;-78
2022/06/23 05:35:00;;;;;;;14.82;8.13;;;15.80;99.90;;;;;;5052046;28;20048;-79
2022/06/23 05:37:37;;;;;;;13.25;8.32;;;15.90;99.90;;;;;;5047042;28;20123;-78
2022/06/23 05:40:21;;;;;;;13.90;8.07;;;16.00;99.90;;;;;;5061498;28;20111;-79
2022/06/23 05:42:51;;;;;;;12.68;7.18;;;16.00;99.90;;;;;;5051285;28;20111;-78
2022/06/23 05:45:42;;;;;;;14.05;8.02;;;16.10;99.90;;;;;;5062129;28;20041;-79
2022/06/23 05:48:16;;;;;;;12.45;7.28;;;16.30;99.90;;;;;;5031339;28;20458;-78
2022/06/23 05:50:52;;;;;;;12.82;8.07;;;16.30;99.90;;;;;;5030844;28;20072;-79
2022/06/23 05:53:29;;;;;;;14.60;8.27;;;16.50;99.90;;;;;;5031109;28;20045;-79
2022/06/23 05:56:14;;;;;;;13.35;7.75;;;16.70;99.90;;;;;;5034876;28;20045;-79
2022/06/23 05:58:41;;;;;;;12.98;7.80;;;16.70;99.90;;;;;;5042393;28;20487;-79
2022/06/23 06:01:16;;;;;;;13.13;8.10;;;16.80;99.90;;;;;;5055175;28;20187;-79
2022/06/23 06:03:56;;;;;;;11.88;7.57;;;16.80;99.90;;;;;;5072078;28;20040;-79
2022/06/23 06:06:22;;;;;;;12.45;7.75;;;16.90;99.90;;;;;;5068157;28;20044;-79
2022/06/23 06:11:59;;;;;;;12.32;7.97;;;17.00;99.90;;;;;;5058281;28;20049;-80
2022/06/23 06:14:31;;;;;;;13.48;7.72;;;17.10;99.90;;;;;;5071418;28;20087;-79
2022/06/23 06:16:59;;;;;;;;;;;17.10;99.90;;;;;;5065007;28;20121;-79
2022/06/23 06:19:27;;;;;;;12.57;6.90;;;17.30;99.90;;;;;;5034760;28;20397;-78
2022/06/23 06:21:57;;;;;;;14.13;7.60;;;17.30;99.90;;;;;;5034358;28;20076;-79
2022/06/23 06:24:35;;;;;;;12.98;7.63;;;17.50;99.90;;;;;;5065774;28;20495;-79
2022/06/23 06:27:04;;;;;;;12.98;7.10;;;17.60;99.90;;;;;;5050838;28;20052;-79
2022/06/23 06:29:34;;;;;;;12.88;7.60;;;17.70;99.90;;;;;;5034619;28;20134;-79
2022/06/23 06:32:21;;;;;;;14.05;7.68;;;17.80;99.90;;;;;;5059411;28;20041;-79
2022/06/23 06:35:00;;;;;;;10.75;6.13;;;17.90;99.90;;;;;;5036998;28;20048;-79
2022/06/23 06:37:31;;;;;;;14.13;7.00;;;18.10;99.90;;;;;;5050980;28;20510;-79
2022/06/23 06:40:03;;;;;;;11.70;7.10;;;18.30;99.90;;;;;;5034428;28;20041;-79
2022/06/23 06:42:47;;;;;;;13.80;6.63;;;18.40;99.90;;;;;;5034315;28;20498;-79
2022/06/23 06:45:17;;;;;;;12.80;7.15;;;18.40;99.90;;;;;;5042720;28;20046;-81
2022/06/23 06:47:44;;;;;;;14.15;6.78;;;18.50;99.90;;;;;;5070477;28;20106;-80
2022/06/23 06:50:25;;;;;;;13.25;6.82;;;18.50;99.90;;;;;;5062009;28;20048;-79
2022/06/23 06:52:51;;;;;;;11.85;6.63;;;18.50;99.90;;;;;;5050272;28;20565;-80
2022/06/23 06:55:29;;;;;;;11.30;6.45;;;18.50;99.90;;;;;;5018056;28;20048;-79
2022/06/23 06:58:04;;;;;;;12.82;6.55;;;18.60;99.90;;;;;;5050184;28;20498;-79
2022/06/23 07:00:55;;;;;;;14.80;6.20;;;18.70;99.90;;;;;;5050640;28;20048;-80
2022/06/23 07:03:24;;;;;;;12.68;6.43;;;19.00;99.90;;;;;;5058342;28;20101;-79
2022/06/23 07:05:56;;;;;;;12.32;6.82;;;19.20;99.90;;;;;;5061285;28;20106;-79
2022/06/23 07:08:37;;;;;;;12.10;6.25;;;19.30;99.90;;;;;;5041897;28;20049;-79
2022/06/23 07:11:14;;;;;;;11.27;6.40;;;19.40;99.90;;;;;;5053198;28;20072;-79
2022/06/23 07:13:50;;;;;;;17.65;6.20;;;19.50;99.90;;;;;;5050601;28;20041;-79
2022/06/23 07:16:22;;;;;;;12.68;6.22;;;19.60;99.90;;;;;;5068570;28;20067;-79
2022/06/23 07:19:03;;;;;;;11.38;6.70;;;19.80;99.90;;;;;;5070374;28;20451;-80
2022/06/23 07:21:34;;;;;;;13.27;6.93;;;19.80;99.90;;;;;;5070235;28;20043;-79
2022/06/23 07:24:12;;;;;;;13.48;6.32;;;19.80;99.90;;;;;;5070139;28;20491;-79
2022/06/23 07:26:47;;;;;;;10.15;6.00;;;20.00;99.90;;;;;;5070172;28;20509;-79
2022/06/23 07:29:31;;;;;;;10.93;5.45;;;20.00;99.90;;;;;;5053485;28;20513;-80
2022/06/23 07:32:35;;;;;;;11.95;6.07;;;20.10;99.90;;;;;;5053252;28;20045;-79
2022/06/23 07:35:19;;;;;;;12.02;6.45;;;20.30;99.90;;;;;;5069467;28;20403;-79
2022/06/23 07:37:47;;;;;;;12.93;5.57;;;20.50;99.90;;;;;;5069935;28;20033;-79
2022/06/23 07:40:16;;;;;;;9.93;5.97;;;20.60;99.90;;;;;;5033520;28;20041;-79
2022/06/23 07:42:59;;;;;;;10.75;5.45;;;20.80;99.90;;;;;;5033209;28;20106;-79
2022/06/23 07:45:37;;;;;;;10.23;5.90;;;21.00;99.90;;;;;;5033661;28;20487;-80
2022/06/23 07:48:03;;;;;;;10.65;5.35;;;21.20;99.90;;;;;;5041047;28;20044;-80
2022/06/23 07:50:29;;;;;;;11.32;5.47;;;21.30;99.90;;;;;;5052970;28;20102;-79
2022/06/23 07:52:55;;;;;;;9.70;5.28;;;21.30;99.90;;;;;;5036370;28;20040;-79
2022/06/23 07:55:36;;;;;;;10.52;5.50;;;21.40;99.90;;;;;;5069984;28;20402;-80
2022/06/23 07:58:02;;;;;;;10.73;5.25;;;21.50;99.90;;;;;;5061948;28;20041;-81
2022/06/23 08:00:28;;;;;;;9.32;5.13;;;21.50;99.90;;;;;;5032863;28;20109;-80
2022/06/23 08:03:12;;;;;;;9.98;4.78;;;21.50;99.90;;;;;;5032773;28;20041;-81
2022/06/23 08:05:48;;;;;;;10.10;5.05;;;21.70;99.90;;;;;;5049722;28;20487;-80
2022/06/23 08:08:23;;;;;;;10.55;5.28;;;21.80;99.90;;;;;;5049742;28;20056;-80
2022/06/23 08:12:53;;;;;;;10.95;5.38;;;21.80;99.90;;;;;;5032787;28;20067;-80
2022/06/23 08:13:43;;;;;;;10.48;5.47;;;22.00;99.90;;;;;;5049506;28;20095;-79
2022/06/23 08:19:14;;;;;;;11.55;4.72;;;22.30;99.90;;;;;;5068894;28;20048;-79
2022/06/23 08:21:53;;;;;;;8.57;3.78;;;22.30;99.90;;;;;;5068765;28;20071;-79
2022/06/23 08:24:24;;;;;;;10.32;4.35;;;22.40;99.90;;;;;;5069061;28;20116;-80
2022/06/23 08:27:18;;;;;;;10.30;4.55;;;22.60;99.90;;;;;;5068563;28;20044;-79
2022/06/23 08:29:43;;;;;;;;;;;22.60;99.90;;;;;;5033117;28;20415;-79
2022/06/23 08:32:10;;;;;;;10.60;5.38;;;22.70;99.90;;;;;;5031725;28;19917;-80
2022/06/23 08:34:40;;;;;;;9.43;4.90;;;22.80;99.90;;;;;;5032272;28;20052;-81
2022/06/23 08:37:14;;;;;;;9.98;4.78;;;22.90;99.90;;;;;;5031996;28;20045;-80
2022/06/23 08:39:54;;;;;;;10.63;4.30;;;23.00;99.90;;;;;;5054386;28;20067;-79
2022/06/23 08:42:29;;;;;;;10.98;4.60;;;23.00;99.90;;;;;;5048616;28;20112;-81
2022/06/23 08:45:02;;;;;;;10.80;4.35;;;23.10;99.90;;;;;;5032356;28;20040;-79
2022/06/23 08:47:55;;;;;;;10.35;4.45;;;23.20;99.90;;;;;;5047981;28;20032;-80
2022/06/23 08:50:29;;;;;;;11.32;5.28;;;23.30;99.90;;;;;;5031218;28;20043;-79
2022/06/23 08:53:10;;;;;;;11.00;4.30;;;23.40;99.90;;;;;;5048002;28;20037;-79
2022/06/23 08:55:44;;;;;;;11.13;4.90;;;23.50;99.90;;;;;;5048087;28;20041;-80
2022/06/23 08:58:17;;;;;;;8.73;4.18;;;23.60;99.90;;;;;;5048071;28;20048;-79
2022/06/23 09:01:01;;;;;;;9.40;4.18;;;23.70;99.90;;;;;;5030791;28;20270;-81
2022/06/23 09:03:46;;;;;;;9.95;4.10;;;23.80;99.90;;;;;;5031486;28;20041;-80
2022/06/23 09:06:38;;;;;;;9.90;3.75;;;23.90;99.90;;;;;;5047733;28;20040;-80
2022/06/23 09:09:08;;;;;;;13.63;4.40;;;24.00;99.90;;;;;;5031441;28;20052;-80
2022/06/23 09:11:54;;;;;;;9.77;4.10;;;24.00;99.90;;;;;;5047515;28;20053;-79
2022/06/23 09:14:38;;;;;;;8.73;4.07;;;24.10;99.90;;;;;;5050138;28;20076;-80
2022/06/23 09:17:07;;;;;;;9.05;3.92;;;24.20;99.90;;;;;;5060535;28;20045;-80
2022/06/23 09:19:50;;;;;;;8.77;3.45;;;24.20;99.90;;;;;;5048103;28;20072;-80
2022/06/23 09:22:50;;;;;;;9.10;3.50;;;22.80;99.90;;;;;;5031251;28;20048;-79
2022/06/23 09:25:33;;;;;;;9.30;3.30;;;24.40;99.90;;;;;;5047840;28;20084;-79
2022/06/23 09:28:20;;;;;;;10.57;3.55;;;24.60;99.90;;;;;;5047640;28;20041;-79
2022/06/23 09:30:57;;;;;;;7.85;3.22;;;24.70;99.90;;;;;;5047555;28;20229;-81
2022/06/23 09:33:45;;;;;;;7.82;3.20;;;24.90;99.90;;;;;;5030718;28;20110;-81
2022/06/23 09:36:30;;;;;;;7.38;2.67;;;24.80;99.90;;;;;;5047040;28;20033;-80
2022/06/23 09:39:23;;;;;;;8.98;3.10;;;24.90;99.90;;;;;;5055483;28;20040;-81
2022/06/23 09:42:23;;;;;;;8.82;3.10;;;25.00;99.90;;;;;;5050355;28;20040;-80
2022/06/23 09:45:14;;;;;;;7.93;3.03;;;25.00;99.90;;;;;;5050842;28;20039;-79
2022/06/23 09:48:18;;;;;;;8.07;2.80;;;25.10;99.90;;;;;;5050681;28;20036;-80
2022/06/23 09:50:56;;;;;;;8.45;3.13;;;25.40;99.90;;;;;;5067336;28;20044;-80
2022/06/23 09:54:02;;;;;;;8.75;2.55;;;25.50;99.90;;;;;;5050760;28;20045;-80
2022/06/23 09:57:13;;;;;;;7.57;2.60;;;25.60;99.90;;;;;;5050340;28;20040;-80
2022/06/23 09:59:59;;;;;;;10.40;2.65;;;25.90;99.90;;;;;;5035749;28;20056;-79
2022/06/23 10:02:47;;;;;;;9.82;2.67;;;25.80;99.90;;;;;;5050140;28;20040;-81
2022/06/23 10:05:35;;;;;;;6.95;2.22;;;25.90;99.90;;;;;;5063913;28;20118;-80
2022/06/23 10:08:16;;;;;;;7.25;2.80;;;26.00;99.90;;;;;;5046805;28;20137;-80
2022/06/23 10:10:50;;;;;;;7.55;2.50;;;26.10;99.90;;;;;;5050177;28;20483;-80
2022/06/23 10:13:57;;;;;;;7.45;2.45;;;26.10;99.90;;;;;;5050218;28;20060;-80
2022/06/23 10:16:47;;;;;;;8.25;2.70;;;26.20;99.90;;;;;;5067294;28;20048;-80
2022/06/23 10:19:12;;;;;;;6.55;2.50;;;26.30;99.90;;;;;;5067734;28;20044;-80
2022/06/23 10:22:10;;;;;;;7.75;2.50;;;26.40;99.90;;;;;;5066809;28;20536;-81
2022/06/23 10:24:57;;;;;;;7.18;2.50;;;26.40;99.90;;;;;;5047042;28;20114;-80
2022/06/23 10:28:05;;;;;;;8.77;2.80;;;26.50;99.90;;;;;;5030073;28;20037;-80
2022/06/23 10:31:10;;;;;;;7.97;2.40;;;26.50;99.90;;;;;;5038756;28;20080;-80
2022/06/23 10:34:05;;;;;;;9.95;2.67;;;26.60;99.90;;;;;;5009327;28;20551;-80
2022/06/23 10:36:58;;;;;;;6.93;2.65;;;26.70;99.90;;;;;;5008953;28;20145;-81
2022/06/23 10:39:39;;;;;;;7.82;2.40;;;26.70;99.90;;;;;;5024196;28;20041;-80
2022/06/23 10:42:25;;;;;;;7.22;2.38;;;26.80;99.90;;;;;;5050862;28;20402;-81
2022/06/23 10:45:11;;;;;;;9.05;2.50;;;26.80;99.90;;;;;;5013612;28;20052;-80
2022/06/23 10:47:54;;;;;;;7.70;2.75;;;26.90;99.90;;;;;;5033789;28;20044;-80
2022/06/23 10:50:48;;;;;;;7.93;2.58;;;27.00;99.90;;;;;;5034109;28;20419;-82
2022/06/23 10:53:33;;;;;;;8.55;2.50;;;27.00;99.90;;;;;;5041738;28;20120;-80
2022/06/23 10:56:08;;;;;;;8.13;2.33;;;27.10;99.90;;;;;;5067020;28;20072;-80
2022/06/23 10:58:49;;;;;;;6.18;2.20;;;27.10;99.90;;;;;;5050654;28;20037;-80
2022/06/23 11:01:47;;;;;;;7.90;2.47;;;27.20;99.90;;;;;;5050564;28;20109;-81
2022/06/23 11:04:22;;;;;;;6.97;2.33;;;27.40;99.90;;;;;;5047472;28;20362;-79
2022/06/23 11:07:05;;;;;;;11.10;2.70;;;27.50;99.90;;;;;;5049519;28;20098;-79
2022/06/23 11:09:30;;;;;;;8.73;2.42;;;27.60;99.90;;;;;;5035985;28;20453;-81
2022/06/23 11:12:10;;;;;;;7.78;2.10;;;27.70;99.90;;;;;;5033260;28;20060;-79
2022/06/23 11:15:13;;;;;;;7.50;2.40;;;27.80;99.90;;;;;;5038213;28;20102;-80
2022/06/23 11:18:03;;;;;;;8.25;2.40;;;27.90;99.90;;;;;;5052856;28;20036;-79
2022/06/23 11:20:50;;;;;;;7.28;2.45;;;28.00;99.90;;;;;;5053050;28;20043;-81
2022/06/23 11:23:31;;;;;;;8.57;2.30;;;28.10;99.90;;;;;;5053093;28;20044;-80
2022/06/23 11:26:20;;;;;;;9.10;2.40;;;28.20;99.90;;;;;;5069245;28;20051;-80
2022/06/23 11:29:14;;;;;;;7.20;2.28;;;28.20;99.90;;;;;;5032922;28;20155;-80
2022/06/23 11:31:58;;;;;;;7.50;2.50;;;28.20;99.90;;;;;;5049302;28;20051;-81
2022/06/23 11:34:49;;;;;;;7.35;2.40;;;28.30;99.90;;;;;;5032678;28;20041;-80
2022/06/23 11:37:23;;;;;;;7.22;2.40;;;28.40;99.90;;;;;;5032804;28;20148;-78
2022/06/23 11:40:10;;;;;;;7.07;2.40;;;28.40;99.90;;;;;;5033068;28;20057;-78
2022/06/23 11:42:44;;;;;;;6.35;2.25;;;28.50;99.90;;;;;;5032629;28;20051;-78
2022/06/23 11:45:33;;;;;;;8.38;2.50;;;28.60;99.90;;;;;;5035984;28;20048;-80
2022/06/23 11:48:17;;;;;;;7.82;2.50;;;28.70;99.90;;;;;;5057741;28;20040;-80
2022/06/23 11:50:58;;;;;;;6.72;2.20;;;28.80;99.90;;;;;;5068960;28;20040;-78
2022/06/23 11:53:41;;;;;;;5.90;2.20;;;28.90;99.90;;;;;;5068268;28;20055;-79
2022/06/23 11:56:25;;;;;;;7.65;2.00;;;29.00;99.50;;;;;;5068796;28;20036;-78
2022/06/23 11:59:09;;;;;;;8.02;2.30;;;29.10;99.70;;;;;;5052564;28;20041;-78
2022/06/23 12:01:38;;;;;;;6.25;2.25;;;29.20;99.50;;;;;;5052783;28;20056;-80
2022/06/23 12:04:33;;;;;;;8.25;2.38;;;29.20;99.10;;;;;;5064288;28;20482;-81
2022/06/23 12:07:27;;;;;;;7.68;2.28;;;29.10;98.50;;;;;;5050864;28;20045;-78
2022/06/23 12:10:19;;;;;;;7.78;2.40;;;28.90;98.50;;;;;;5032320;28;20044;-78
2022/06/23 12:12:46;;;;;;;;;;;29.40;98.50;;;;;;5057323;28;20052;-78
2022/06/23 12:15:17;;;;;;;6.20;2.20;;;29.50;98.10;;;;;;5068724;28;20301;-78
2022/06/23 12:17:48;;;;;;;6.40;2.30;;;29.50;98.00;;;;;;5064742;28;20068;-80
2022/06/23 12:20:37;;;;;;;8.00;2.20;;;29.50;97.40;;;;;;5066702;28;20122;-80
2022/06/23 12:23:21;;;;;;;7.95;2.10;;;29.50;96.30;;;;;;5032137;28;20045;-79
2022/06/23 12:25:52;;;;;;;5.97;2.00;;;29.50;96.90;;;;;;5054921;28;20044;-79
2022/06/23 12:28:51;;;;;;;5.18;1.90;;;29.60;95.30;;;;;;5068087;28;20121;-79
2022/06/23 12:31:35;;;;;;;7.60;2.20;;;29.70;93.70;;;;;;5031722;28;20148;-79
2022/06/23 12:34:08;;;;;;;8.93;2.10;;;29.80;94.30;;;;;;5037351;28;20041;-79
2022/06/23 12:37:02;;;;;;;7.22;2.20;;;30.00;94.60;;;;;;5048285;28;20752;-78
2022/06/23 12:39:37;;;;;;;8.45;2.03;;;30.20;94.00;;;;;;5031721;28;20069;-79
2022/06/23 12:42:11;;;;;;;5.28;2.10;;;30.20;93.00;;;;;;5048137;28;20375;-81
2022/06/23 12:45:05;;;;;;;6.15;1.90;;;30.20;91.60;;;;;;5048192;28;20565;-79
2022/06/23 12:47:57;;;;;;;5.95;1.95;;;30.20;90.10;;;;;;5056381;28;20479;-79
2022/06/23 12:50:31;;;;;;;5.70;2.00;;;30.20;90.20;;;;;;5068063;28;20118;-80
2022/06/23 12:53:18;;;;;;;5.78;1.92;;;30.30;90.50;;;;;;5067667;28;20086;-79
2022/06/23 12:55:50;;;;;;;6.60;2.10;;;30.50;90.90;;;;;;5067559;28;20297;-79
2022/06/23 12:58:16;;;;;;;5.00;2.10;;;30.70;90.10;;;;;;5067921;28;20071;-78
2022/06/23 13:00:59;;;;;;;6.60;2.15;;;30.60;90.10;;;;;;5067483;28;20503;-78
2022/06/23 13:03:41;;;;;;;5.93;2.00;;;30.80;88.70;;;;;;5067397;28;20278;-78
2022/06/23 13:06:21;;;;;;;7.07;2.00;;;30.90;88.70;;;;;;5050602;28;20055;-79
2022/06/23 13:08:55;;;;;;;9.52;2.22;;;30.90;88.60;;;;;;5061152;28;20383;-79
2022/06/23 13:11:30;;;;;;;7.07;2.00;;;30.90;86.90;;;;;;5030687;28;20499;-79
2022/06/23 13:14:04;;;;;;;5.43;1.88;;;30.80;86.00;;;;;;5031201;28;20041;-79
2022/06/23 13:16:50;;;;;;;8.70;2.28;;;30.90;86.20;;;;;;5046265;28;20117;-80
2022/06/23 13:19:30;;;;;;;6.88;2.17;;;31.10;85.30;;;;;;5051012;28;20033;-78
2022/06/23 13:22:08;;;;;;;7.10;2.00;;;31.00;85.00;;;;;;5067309;28;20044;-78
2022/06/23 13:24:36;;;;;;;5.43;2.00;;;31.10;84.20;;;;;;5067840;28;20048;-78
2022/06/23 13:27:19;;;;;;;6.25;2.05;;;31.20;84.30;;;;;;5050929;28;20071;-78
2022/06/23 13:29:54;;;;;;;6.10;2.22;;;31.20;83.10;;;;;;5050870;28;20044;-79
2022/06/23 13:32:41;;;;;;;7.15;2.20;;;31.30;84.90;;;;;;5067366;28;20143;-78
2022/06/23 13:35:27;;;;;;;5.50;1.98;;;31.50;83.50;;;;;;5067660;28;20102;-78
2022/06/23 13:38:25;;;;;;;6.40;2.10;;;31.60;82.60;;;;;;5050406;28;20115;-79
2022/06/23 13:41:01;;;;;;;5.47;2.08;;;31.70;81.90;;;;;;5050620;28;20091;-79
2022/06/23 13:43:54;;;;;;;6.30;2.15;;;31.60;79.90;;;;;;5067283;28;20503;-79
2022/06/23 13:46:34;;;;;;;6.32;2.10;;;31.60;80.00;;;;;;5035117;28;20053;-79
2022/06/23 13:49:24;;;;;;;7.22;2.10;;;31.70;80.30;;;;;;5031158;28;20372;-78
2022/06/23 13:52:10;;;;;;;5.80;2.20;;;31.80;80.70;;;;;;5030248;28;20487;-79
2022/06/23 13:54:40;;;;;;;5.95;2.00;;;31.90;80.20;;;;;;5030800;28;20401;-79
2022/06/23 13:57:26;;;;;;;8.27;2.20;;;32.00;80.60;;;;;;5047219;28;20091;-80
2022/06/23 14:00:03;;;;;;;7.43;2.10;;;32.10;79.80;;;;;;5030521;28;20044;-79
2022/06/23 14:02:51;;;;;;;5.60;2.20;;;32.00;81.20;;;;;;5046965;28;20059;-80